Time;durP1;ratioP1;P1;durP2;ratioP2;P2;SDS_P1;SDS_P2;PMS_P1;PMS_P2;Temp;Humidity;BMP_temperature;BMP_pressure;BME280_temperature;BME280_humidity;BME280_pressure;Samples;Min_cycle;Max_cycle;Signal;HPM_P1;HPM_P2
2023/02/18 00:00:00;;;;;;;1.80;1.70;;;;;;;18.30;45.25;97959.53;4968291;28;20252;-95
2023/02/18 00:02:40;;;;;;;2.77;1.70;;;;;;;19.04;45.16;98073.50;4976311;28;20207;-94
2023/02/18 00:05:20;;;;;;;2.00;1.80;;;;;;;18.02;45.20;97885.22;4970494;28;20219;-95
2023/02/18 00:08:03;;;;;;;2.53;1.70;;;;;;;17.91;45.26;97860.91;4985743;28;20280;-93
2023/02/18 00:10:36;;;;;;;2.93;1.83;;;;;;;17.49;45.03;97820.69;4970208;28;20211;-93
2023/02/18 00:13:14;;;;;;;1.80;1.67;;;;;;;18.37;44.96;97951.44;4973274;28;20214;-94
2023/02/18 00:15:43;;;;;;;1.70;1.60;;;;;;;17.24;45.19;97749.13;4985956;28;20193;-94
2023/02/18 00:18:16;;;;;;;1.67;1.57;;;;;;;18.42;45.00;97952.53;4994995;28;20222;-94
2023/02/18 00:20:50;;;;;;;1.53;1.43;;;;;;;18.37;45.08;97945.41;4968335;28;20263;-94
2023/02/18 00:23:22;;;;;;;2.00;1.80;;;;;;;17.15;45.26;97763.91;4976552;28;20203;-95
2023/02/18 00:26:18;;;;;;;3.00;1.70;;;;;;;17.70;45.28;97826.81;4980514;28;20199;-94
2023/02/18 00:29:06;;;;;;;1.80;1.70;;;;;;;18.38;45.32;97962.50;4973980;28;20227;-93
2023/02/18 00:32:02;;;;;;;2.10;1.50;;;;;;;18.09;45.34;97888.13;4988936;28;20196;-93
2023/02/18 00:34:44;;;;;;;1.60;1.50;;;;;;;20.01;45.16;98211.56;4960751;28;20180;-94
2023/02/18 00:37:23;;;;;;;1.80;1.63;;;;;;;18.36;45.09;97936.06;4988802;28;20188;-94
2023/02/18 00:40:25;;;;;;;1.67;1.57;;;;;;;18.21;45.32;97903.13;4962766;28;20192;-94
2023/02/18 00:46:20;;;;;;;1.63;1.53;;;;;;;18.57;45.12;97963.44;4985907;28;20199;-93
2023/02/18 00:48:56;;;;;;;2.27;1.50;;;;;;;17.84;45.27;97819.09;4960616;28;20267;-94
2023/02/18 00:51:29;;;;;;;1.93;1.60;;;;;;;19.57;44.90;98129.59;4984159;28;20215;-93
2023/02/18 00:54:07;;;;;;;1.87;1.40;;;;;;;18.29;45.18;97941.66;4965749;28;20215;-95
2023/02/18 00:56:43;;;;;;;1.73;1.57;;;;;;;18.39;44.97;97936.22;4965711;28;20180;-94
2023/02/18 00:59:15;;;;;;;1.60;1.50;;;;;;;18.83;45.11;98007.97;4971161;28;20180;-94
2023/02/18 01:01:59;;;;;;;1.60;1.50;;;;;;;18.45;45.03;97967.94;4970394;28;20200;-94
2023/02/18 01:04:45;;;;;;;1.67;1.57;;;;;;;18.46;45.05;97954.41;4978539;28;20180;-93
2023/02/18 01:07:36;;;;;;;1.93;1.77;;;;;;;17.23;45.03;97734.69;4975471;28;20199;-94
2023/02/18 01:10:17;;;;;;;1.50;1.40;;;;;;;18.48;45.20;97978.28;4975753;28;20192;-94
2023/02/18 01:12:50;;;;;;;1.50;1.40;;;;;;;17.09;45.23;97706.09;4955889;28;20208;-94
2023/02/18 01:15:21;;;;;;;1.63;1.53;;;;;;;17.77;45.17;97819.56;4983214;28;20195;-93
2023/02/18 01:18:12;;;;;;;1.97;1.77;;;;;;;20.10;45.02;98214.53;4974487;28;20184;-94
2023/02/18 01:20:53;;;;;;;1.50;1.40;;;;;;;18.01;45.09;97868.22;4994442;28;20231;-94
2023/02/18 01:23:24;;;;;;;1.50;1.40;;;;;;;19.91;45.18;98183.91;4980689;28;20206;-95
2023/02/18 01:26:09;;;;;;;2.63;1.60;;;;;;;18.43;45.08;97948.28;4952930;28;20278;-94
2023/02/18 01:28:36;;;;;;;2.13;1.50;;;;;;;17.67;44.86;97813.97;4984568;28;20247;-94
2023/02/18 01:31:33;;;;;;;1.60;1.50;;;;;;;18.47;45.11;97950.22;4974126;28;20196;-92
2023/02/18 01:34:14;;;;;;;1.57;1.47;;;;;;;17.68;44.97;97814.03;4969584;28;20188;-96
2023/02/18 01:37:08;;;;;;;1.50;1.40;;;;;;;18.37;45.08;97898.00;4973854;28;20183;-95
2023/02/18 01:39:52;;;;;;;1.60;1.50;;;;;;;18.49;45.04;97930.75;4975262;28;20187;-94
2023/02/18 01:42:36;;;;;;;2.80;1.50;;;;;;;19.06;45.11;98026.06;4981878;28;20238;-94
2023/02/18 01:45:44;;;;;;;1.50;1.40;;;;;;;20.09;45.28;98194.06;4963711;28;20195;-93
2023/02/18 01:48:22;;;;;;;1.50;1.40;;;;;;;19.09;45.11;98026.19;4985497;28;20219;-93
2023/02/18 01:51:11;;;;;;;1.50;1.40;;;;;;;18.95;45.09;98003.44;4984348;28;20212;-93
2023/02/18 01:54:00;;;;;;;2.10;1.60;;;;;;;18.34;45.30;97923.25;4991813;28;20216;-94
2023/02/18 01:56:36;;;;;;;1.57;1.47;;;;;;;19.46;45.35;98069.59;5010056;28;20184;-93
2023/02/18 01:59:19;;;;;;;1.57;1.40;;;;;;;18.01;45.04;97830.97;5006486;28;20207;-92
2023/02/18 02:01:52;;;;;;;1.70;1.60;;;;;;;17.94;45.35;97826.34;4975684;28;20183;-92
2023/02/18 02:04:55;;;;;;;1.70;1.60;;;;;;;18.51;45.19;97919.00;4988327;28;20185;-93
2023/02/18 02:07:35;;;;;;;1.50;1.40;;;;;;;17.53;45.29;97764.16;4987047;28;20188;-93
2023/02/18 02:10:05;;;;;;;1.73;1.50;;;;;;;18.07;45.01;97833.78;4976805;28;20218;-92
2023/02/18 02:13:11;;;;;;;4.30;1.90;;;;;;;20.06;45.14;98169.28;4965168;28;20220;-92
2023/02/18 02:15:57;;;;;;;1.83;1.60;;;;;;;18.45;45.22;97899.22;4997595;28;20192;-92
2023/02/18 02:19:13;;;;;;;1.33;1.23;;;;;;;20.06;45.00;98165.84;4990194;28;20199;-92
2023/02/18 02:22:08;;;;;;;1.60;1.50;;;;;;;20.05;45.25;98165.00;4986248;28;20185;-92
2023/02/18 02:25:27;;;;;;;1.20;1.20;;;;;;;16.88;45.21;97635.59;4994551;28;20200;-92
2023/02/18 02:28:31;;;;;;;2.40;1.70;;;;;;;20.05;45.35;98161.56;4987462;28;20223;-93
2023/02/18 02:31:26;;;;;;;2.40;1.53;;;;;;;19.43;45.30;98060.13;5000387;28;20196;-93
2023/02/18 02:34:05;;;;;;;1.43;1.33;;;;;;;19.62;45.16;98092.41;4998204;28;20234;-92
2023/02/18 02:37:03;;;;;;;1.50;1.40;;;;;;;20.05;45.21;98161.56;5013525;28;20246;-93
2023/02/18 02:40:03;;;;;;;1.30;1.20;;;;;;;20.04;45.36;98165.78;4996096;28;20215;-92
2023/02/18 02:43:00;;;;;;;1.50;1.40;;;;;;;20.02;45.19;98170.81;5005061;28;20223;-92
2023/02/18 02:45:59;;;;;;;1.37;1.20;;;;;;;20.04;45.37;98167.47;5007787;28;20204;-92
2023/02/18 02:49:17;;;;;;;1.93;1.57;;;;;;;20.04;45.27;98157.28;5002425;28;20215;-92
2023/02/18 02:51:58;;;;;;;1.60;1.50;;;;;;;19.33;45.31;98037.56;4993881;28;20179;-93
2023/02/18 02:54:36;;;;;;;1.77;1.67;;;;;;;18.41;45.09;97882.06;4994776;28;20198;-92
2023/02/18 02:57:17;;;;;;;1.40;1.30;;;;;;;20.04;45.07;98154.72;4979856;28;20196;-92
2023/02/18 02:59:56;;;;;;;1.53;1.43;;;;;;;18.37;45.22;97879.25;4994773;28;20188;-93
2023/02/18 03:02:54;;;;;;;1.57;1.47;;;;;;;20.04;45.18;98140.25;4972626;28;20246;-92
2023/02/18 03:05:23;;;;;;;1.47;1.37;;;;;;;19.48;45.23;98048.44;4984679;28;20192;-92
2023/02/18 03:08:09;;;;;;;1.40;1.30;;;;;;;20.06;45.22;98142.88;4993799;28;20181;-93
2023/02/18 03:11:06;;;;;;;1.37;1.30;;;;;;;17.08;45.18;97642.53;4981989;28;20177;-92
2023/02/18 03:14:26;;;;;;;1.80;1.60;;;;;;;20.06;45.09;98133.56;4984374;28;20280;-93
2023/02/18 03:17:22;;;;;;;1.60;1.50;;;;;;;17.70;45.01;97737.88;4990689;28;20195;-94
2023/02/18 03:19:56;;;;;;;1.40;1.30;;;;;;;18.70;45.11;97903.78;4983394;28;20222;-93
2023/02/18 03:22:45;;;;;;;1.20;1.20;;;;;;;18.13;45.38;97802.69;4955825;28;20239;-91
2023/02/18 03:28:39;;;;;;;1.40;1.30;;;;;;;18.45;45.25;97853.44;4987252;28;20187;-93
2023/02/18 03:31:12;;;;;;;1.60;1.50;;;;;;;18.74;45.28;97938.78;4973043;28;20211;-92
2023/02/18 03:33:56;;;;;;;1.50;1.40;;;;;;;17.26;45.31;97653.56;4985016;28;20207;-92
2023/02/18 03:36:46;;;;;;;1.43;1.33;;;;;;;18.46;45.28;97856.81;4980689;28;20192;-91
2023/02/18 03:39:31;;;;;;;1.60;1.50;;;;;;;17.21;45.11;97648.28;4980253;28;20188;-93
2023/02/18 03:42:14;;;;;;;1.93;1.20;;;;;;;18.20;45.35;97820.84;4977935;28;20224;-93
2023/02/18 03:44:51;;;;;;;1.30;1.20;;;;;;;19.67;45.47;98083.31;4975262;28;20180;-93
2023/02/18 03:47:27;;;;;;;1.30;1.20;;;;;;;17.95;45.19;97772.16;4976466;28;20191;-92
2023/02/18 03:50:02;;;;;;;1.77;1.20;;;;;;;18.08;45.26;97792.28;4998126;28;20215;-93
2023/02/18 03:52:32;;;;;;;1.30;1.20;;;;;;;17.10;45.25;97659.56;4983984;28;20207;-93
2023/02/18 03:55:23;;;;;;;1.40;1.30;;;;;;;18.99;44.94;97964.56;4980644;28;20195;-92
2023/02/18 03:57:55;;;;;;;1.60;1.50;;;;;;;18.52;45.22;97854.56;4968370;28;20188;-93
2023/02/18 04:00:27;;;;;;;2.20;1.50;;;;;;;17.95;45.28;97789.09;4976680;28;20194;-93
2023/02/18 04:03:00;;;;;;;1.53;1.43;;;;;;;18.59;44.94;97882.91;4972212;28;20226;-93
2023/02/18 04:05:45;;;;;;;1.43;1.33;;;;;;;18.46;45.11;97852.63;4984195;28;20208;-92
2023/02/18 04:08:11;;;;;;;1.50;1.40;;;;;;;18.49;45.18;97859.50;4981269;28;20256;-94
2023/02/18 04:10:56;;;;;;;1.50;1.40;;;;;;;18.67;45.22;97904.50;4992464;28;20204;-92
2023/02/18 04:14:05;;;;;;;1.47;1.37;;;;;;;16.95;45.28;97617.34;4982171;28;20218;-92
2023/02/18 04:16:46;;;;;;;1.43;1.33;;;;;;;18.46;45.32;97865.34;4975060;28;20204;-91
2023/02/18 04:19:30;;;;;;;1.70;1.60;;;;;;;18.46;45.30;97897.53;4981930;28;20231;-92
2023/02/18 04:22:00;;;;;;;1.30;1.20;;;;;;;19.98;45.32;98161.28;4992309;28;20215;-93
2023/02/18 04:24:59;;;;;;;1.10;1.10;;;;;;;18.13;45.32;97816.28;4973415;28;20195;-91
2023/02/18 04:27:32;;;;;;;1.60;1.50;;;;;;;19.42;45.32;98039.66;4966895;28;20203;-92
2023/02/18 04:30:24;;;;;;;1.27;1.10;;;;;;;17.53;45.21;97718.44;4970530;28;20250;-92
2023/02/18 04:32:55;;;;;;;14.00;2.03;;;;;;;18.09;45.40;97836.41;4960902;28;20212;-93
2023/02/18 04:35:22;;;;;;;1.40;1.30;;;;;;;18.20;45.49;97827.59;4992840;28;20256;-92
2023/02/18 04:37:59;;;;;;;17.13;2.87;;;;;;;18.45;45.18;97886.50;4964707;28;20183;-93
2023/02/18 04:40:28;;;;;;;1.20;1.20;;;;;;;18.16;45.17;97815.53;4965964;28;20207;-92
2023/02/18 04:43:00;;;;;;;23.20;2.40;;;;;;;19.29;45.36;98017.84;4967825;28;20204;-93
2023/02/18 04:45:32;;;;;;;1.20;1.20;;;;;;;17.65;44.95;97739.34;4979406;28;20194;-93
2023/02/18 04:48:21;;;;;;;1.10;1.10;;;;;;;17.81;45.07;97775.72;5011564;28;20182;-92
2023/02/18 04:51:20;;;;;;;1.50;1.40;;;;;;;20.07;45.09;98140.41;4997055;28;20194;-93
2023/02/18 04:54:05;;;;;;;1.57;1.43;;;;;;;19.52;45.36;98054.56;4978585;28;20224;-93
2023/02/18 04:56:41;;;;;;;1.20;1.20;;;;;;;18.00;45.03;97785.09;4975432;28;20192;-93
2023/02/18 04:59:15;;;;;;;1.40;1.30;;;;;;;18.74;45.13;97923.50;4972163;28;20188;-92
2023/02/18 05:01:51;;;;;;;1.00;1.00;;;;;;;18.41;45.17;97865.94;4954669;28;20196;-93
2023/02/18 05:04:21;;;;;;;1.40;1.30;;;;;;;18.72;45.08;97900.53;4958700;28;20180;-95
2023/02/18 05:06:56;;;;;;;1.57;1.40;;;;;;;18.66;45.06;97882.41;4984099;28;20188;-94
2023/02/18 05:09:29;;;;;;;1.07;1.07;;;;;;;18.61;45.04;97873.69;4977841;28;20227;-92
2023/02/18 05:14:58;;;;;;;1.30;1.17;;;;;;;18.45;45.20;97840.72;4978356;28;20203;-92
2023/02/18 05:17:25;;;;;;;1.20;1.20;;;;;;;17.78;45.32;97717.13;4974701;28;20184;-93
2023/02/18 05:19:56;;;;;;;1.30;1.20;;;;;;;17.42;45.13;97689.94;4988128;28;20199;-93
2023/02/18 05:22:25;;;;;;;1.43;1.20;;;;;;;18.09;45.33;97772.81;4963545;28;20228;-92
2023/02/18 05:24:57;;;;;;;1.40;1.30;;;;;;;18.44;45.33;97866.09;4988200;28;20199;-93
2023/02/18 05:27:36;;;;;;;1.27;1.17;;;;;;;18.47;45.29;97849.25;4971981;28;20195;-93
2023/02/18 05:30:39;;;;;;;1.23;1.13;;;;;;;18.47;45.17;97834.00;4966015;28;20211;-92
2023/02/18 05:33:41;;;;;;;1.30;1.20;;;;;;;18.38;45.24;97825.94;4973867;28;20363;-93
2023/02/18 05:36:22;;;;;;;1.27;1.17;;;;;;;18.61;45.18;97890.63;4988755;28;20179;-93
2023/02/18 05:38:51;;;;;;;1.57;1.20;;;;;;;19.44;45.12;98049.13;4994898;28;20196;-93
2023/02/18 05:41:21;;;;;;;1.30;1.20;;;;;;;18.18;45.24;97807.16;4967414;28;20268;-93
2023/02/18 05:47:08;;;;;;;1.40;1.30;;;;;;;17.48;45.42;97689.38;4981397;28;20184;-93
2023/02/18 05:49:37;;;;;;;1.30;1.20;;;;;;;17.81;45.21;97739.25;4977714;28;20215;-92
2023/02/18 05:52:06;;;;;;;1.27;1.20;;;;;;;18.38;45.41;97861.56;4963168;28;20218;-94
2023/02/18 05:54:37;;;;;;;1.20;1.20;;;;;;;18.47;45.22;97881.50;4982309;28;20217;-93
2023/02/18 05:57:07;;;;;;;1.40;1.30;;;;;;;18.12;45.24;97800.94;4977940;28;20188;-93
2023/02/18 05:59:41;;;;;;;1.30;1.20;;;;;;;18.72;45.33;97903.06;4982068;28;20442;-92
2023/02/18 06:02:10;;;;;;;1.47;1.20;;;;;;;18.40;45.36;97849.78;4986059;28;20267;-92
2023/02/18 06:04:50;;;;;;;1.47;1.37;;;;;;;17.25;45.22;97639.13;4960107;28;20658;-93
2023/02/18 06:07:29;;;;;;;1.00;1.00;;;;;;;17.55;45.38;97707.53;4979261;28;20227;-93
2023/02/18 06:10:25;;;;;;;1.30;1.20;;;;;;;19.29;45.51;98000.00;4973655;28;20243;-92
2023/02/18 06:12:52;;;;;;;1.23;1.13;;;;;;;19.98;45.47;98134.03;4979071;28;20212;-92
2023/02/18 06:15:42;;;;;;;1.40;1.17;;;;;;;17.77;45.97;97762.81;4979924;28;20188;-91
2023/02/18 06:18:14;;;;;;;1.73;1.10;;;;;;;17.54;45.96;97682.94;4992953;28;20231;-91
2023/02/18 06:21:11;;;;;;;1.77;1.40;;;;;;;17.01;45.87;97597.31;4990638;28;20215;-94
2023/02/18 06:23:52;;;;;;;2.67;1.20;;;;;;;18.06;45.38;97796.41;4922762;28;20217;-93
2023/02/18 06:26:24;;;;;;;1.30;1.20;;;;;;;19.86;45.79;98078.22;4940079;28;20253;-94
2023/02/18 06:28:51;;;;;;;4.40;1.27;;;;;;;18.49;45.90;97846.78;4925153;28;20218;-93
2023/02/18 06:31:18;;;;;;;1.50;1.20;;;;;;;19.26;45.98;97969.25;4951950;28;20217;-95
2023/02/18 06:33:44;;;;;;;2.13;1.10;;;;;;;19.67;45.49;98047.59;4957182;28;20229;-94
2023/02/18 06:36:20;;;;;;;3.40;1.30;;;;;;;19.29;45.59;97992.34;4940886;28;20214;-93
2023/02/18 06:38:47;;;;;;;2.43;1.20;;;;;;;19.05;45.76;97936.81;4925294;28;20193;-94
2023/02/18 06:41:13;;;;;;;2.20;1.17;;;;;;;18.98;45.60;97920.38;4942475;29;20185;-92
2023/02/18 06:43:43;;;;;;;4.33;1.30;;;;;;;17.37;45.78;97652.41;4957759;28;20272;-93
2023/02/18 06:46:11;;;;;;;1.23;1.13;;;;;;;17.68;45.19;97681.03;4942703;28;20355;-93
2023/02/18 06:48:57;;;;;;;2.83;1.40;;;;;;;18.57;45.42;97876.91;4976985;28;20195;-91
2023/02/18 06:51:24;;;;;;;5.23;1.50;;;;;;;18.60;45.47;97850.69;4990605;28;20207;-91
2023/02/18 06:56:41;;;;;;;1.40;1.30;;;;;;;17.95;45.73;97753.50;5003385;28;20193;-93
2023/02/18 06:59:08;;;;;;;4.13;1.43;;;;;;;19.26;45.84;97973.47;4974788;28;20204;-94
2023/02/18 07:01:35;;;;;;;1.40;1.30;;;;;;;19.20;45.40;97963.88;4991689;28;20218;-92
2023/02/18 07:04:01;;;;;;;1.20;1.10;;;;;;;19.77;46.08;98060.84;5013533;28;20203;-93
2023/02/18 07:06:28;;;;;;;1.23;1.10;;;;;;;17.53;45.28;97665.91;4993724;28;20215;-94
2023/02/18 07:08:55;;;;;;;2.07;1.30;;;;;;;19.74;45.44;98050.50;5013159;28;20187;-93
2023/02/18 07:11:22;;;;;;;1.80;1.30;;;;;;;18.76;45.75;97879.47;5010583;28;20226;-93
2023/02/18 07:13:48;;;;;;;5.80;1.30;;;;;;;19.60;45.71;98017.56;5011702;28;20271;-94
2023/02/18 07:16:15;;;;;;;1.37;1.27;;;;;;;19.23;45.41;97958.91;5000776;28;20183;-93
2023/02/18 07:18:42;;;;;;;1.40;1.30;;;;;;;18.35;46.03;97805.41;4985305;28;20201;-93
2023/02/18 07:21:08;;;;;;;5.07;1.40;;;;;;;19.72;45.54;98028.28;4977435;28;20187;-93
2023/02/18 07:23:35;;;;;;;1.30;1.20;;;;;;;19.65;45.63;98018.59;5017472;28;20450;-92
2023/02/18 07:26:10;;;;;;;3.70;1.53;;;;;;;18.39;45.52;97811.56;4980359;28;20180;-93
2023/02/18 07:28:40;;;;;;;2.20;1.30;;;;;;;19.48;45.52;97981.31;4982178;28;20206;-93
2023/02/18 07:31:08;;;;;;;1.33;1.23;;;;;;;18.85;45.63;97896.84;5003725;28;20211;-94
2023/02/18 07:57:56;;;;;;;3.90;1.30;;;;;;;17.79;45.41;97679.84;5395984;23;20230;-92
2023/02/18 08:00:25;;;;;;;1.90;1.27;;;;;;;18.48;45.75;97827.25;4956029;28;20188;-93
2023/02/18 08:02:56;;;;;;;1.63;1.27;;;;;;;20.17;45.61;98094.13;4935636;28;20240;-94
2023/02/18 08:05:23;;;;;;;1.00;1.00;;;;;;;19.68;45.34;98000.91;4930704;28;20188;-95
2023/02/18 08:07:50;;;;;;;2.13;1.30;;;;;;;18.87;45.46;97873.19;4943201;28;20260;-92
2023/02/18 08:10:17;;;;;;;3.00;1.50;;;;;;;19.98;45.74;98063.44;4948276;28;20204;-93
2023/02/18 08:12:43;;;;;;;3.40;1.30;;;;;;;18.89;45.77;97860.53;4922623;28;20203;-91
2023/02/18 08:15:10;;;;;;;3.40;1.60;;;;;;;18.17;45.58;97746.94;4947612;28;20264;-93
2023/02/18 08:17:37;;;;;;;3.60;1.40;;;;;;;18.51;45.18;97807.03;4961623;28;20181;-94
2023/02/18 08:20:04;;;;;;;3.10;1.27;;;;;;;18.96;45.76;97873.63;4970896;28;20259;-93
2023/02/18 08:22:31;;;;;;;4.00;1.30;;;;;;;18.01;46.04;97743.63;4933092;28;20248;-93
2023/02/18 08:24:58;;;;;;;4.47;1.40;;;;;;;18.09;45.88;97717.72;4938567;28;20213;-93
2023/02/18 08:27:24;;;;;;;3.20;1.20;;;;;;;19.31;45.65;97944.88;4934867;28;20209;-93
2023/02/18 08:29:51;;;;;;;5.17;1.30;;;;;;;18.97;45.74;97897.38;4938418;28;20291;-92
2023/02/18 08:32:18;;;;;;;5.47;1.50;;;;;;;17.79;45.62;97660.38;4944298;28;20208;-93
2023/02/18 08:34:44;;;;;;;1.37;1.23;;;;;;;19.06;46.25;97908.00;4971070;28;20231;-93
2023/02/18 08:37:11;;;;;;;3.90;1.43;;;;;;;19.57;45.65;97969.81;4921415;28;20189;-93
2023/02/18 08:39:38;;;;;;;2.93;1.47;;;;;;;18.41;45.86;97776.88;4948199;28;20180;-93
2023/02/18 08:42:05;;;;;;;2.97;1.57;;;;;;;18.88;45.65;97834.19;4929920;28;20209;-93
2023/02/18 08:44:32;;;;;;;4.93;1.57;;;;;;;19.13;45.94;97875.22;4970014;28;20204;-92
2023/02/18 08:46:59;;;;;;;3.43;1.47;;;;;;;19.26;45.70;97880.06;4932979;28;20224;-93
2023/02/18 08:49:25;;;;;;;1.60;1.20;;;;;;;18.53;45.84;97783.38;4936618;28;20216;-93
2023/02/18 08:51:53;;;;;;;1.90;1.50;;;;;;;17.86;45.98;97657.31;4923546;28;20196;-94
2023/02/18 08:54:20;;;;;;;3.50;1.63;;;;;;;18.34;45.61;97739.19;4943553;28;20859;-93
2023/02/18 08:56:46;;;;;;;2.33;1.30;;;;;;;18.01;45.28;97683.47;4924830;28;20184;-92
2023/02/18 08:59:13;;;;;;;1.73;1.40;;;;;;;18.85;45.50;97840.81;4925024;28;20212;-94
2023/02/18 09:01:39;;;;;;;1.93;1.50;;;;;;;19.45;45.91;97943.81;4963946;28;20212;-92
2023/02/18 09:04:06;;;;;;;1.53;1.20;;;;;;;19.11;45.90;97876.84;4960685;28;20205;-92
2023/02/18 09:06:36;;;;;;;3.93;1.47;;;;;;;18.33;45.36;97728.16;4949395;28;20189;-92
2023/02/18 09:09:03;;;;;;;7.37;1.20;;;;;;;18.49;45.78;97766.22;4923490;28;20240;-93
2023/02/18 09:11:29;;;;;;;1.70;1.40;;;;;;;18.40;45.53;97731.84;4932568;28;20224;-93
2023/02/18 09:13:56;;;;;;;1.93;1.23;;;;;;;18.52;45.64;97757.84;4926644;28;20209;-94
2023/02/18 09:16:23;;;;;;;1.50;1.40;;;;;;;18.36;45.52;97738.47;4942579;28;20212;-94
2023/02/18 09:18:51;;;;;;;1.90;1.23;;;;;;;19.15;45.79;97839.63;4957666;28;20223;-93
2023/02/18 09:21:19;;;;;;;4.13;1.30;;;;;;;19.37;45.45;97908.59;4936860;28;20248;-93
2023/02/18 09:23:46;;;;;;;1.57;1.37;;;;;;;19.62;45.52;97930.13;4919672;28;20205;-92
2023/02/18 09:26:13;;;;;;;1.77;1.40;;;;;;;17.87;45.46;97635.31;4928669;28;20218;-92
2023/02/18 09:28:40;;;;;;;1.37;1.17;;;;;;;18.88;45.81;97825.66;4921183;28;20193;-93
2023/02/18 09:31:08;;;;;;;1.90;1.20;;;;;;;18.50;45.54;97726.41;4946859;28;20271;-94
2023/02/18 09:33:39;;;;;;;1.33;1.23;;;;;;;17.49;45.40;97557.34;4921705;28;20286;-94
2023/02/18 09:36:06;;;;;;;1.23;1.13;;;;;;;17.84;45.52;97612.28;4937049;28;20228;-93
2023/02/18 09:38:34;;;;;;;1.53;1.10;;;;;;;17.68;45.51;97608.19;4948119;28;20188;-94
2023/02/18 09:41:03;;;;;;;1.40;1.30;;;;;;;19.68;45.43;97919.28;4959813;28;20212;-94
2023/02/18 09:43:44;;;;;;;3.57;1.23;;;;;;;18.51;45.08;97748.47;4931457;28;20205;-93
2023/02/18 09:46:35;;;;;;;2.33;1.20;;;;;;;19.20;45.46;97848.34;4938765;28;20211;-92
2023/02/18 09:49:03;;;;;;;1.30;1.20;;;;;;;19.21;45.65;97835.66;4945294;28;20265;-93
2023/02/18 09:51:30;;;;;;;1.67;1.10;;;;;;;18.46;45.31;97739.75;4937726;28;20208;-94
2023/02/18 09:53:56;;;;;;;1.63;1.10;;;;;;;18.44;45.61;97708.31;4933844;28;20216;-93
2023/02/18 09:56:29;;;;;;;1.37;1.20;;;;;;;18.19;45.64;97660.53;4947345;28;20193;-93
2023/02/18 09:58:56;;;;;;;1.57;1.10;;;;;;;18.38;45.56;97680.06;4945642;28;20200;-93
2023/02/18 10:01:26;;;;;;;1.20;1.10;;;;;;;20.13;45.33;97971.44;4942534;28;20240;-93
2023/02/18 10:03:52;;;;;;;1.70;1.20;;;;;;;18.28;45.67;97655.84;4978897;28;20205;-93
2023/02/18 10:06:23;;;;;;;1.30;1.20;;;;;;;19.04;45.56;97785.66;4963331;28;20762;-93
2023/02/18 10:08:50;;;;;;;1.77;1.10;;;;;;;19.73;45.70;97897.44;4944126;28;20543;-93
2023/02/18 10:11:28;;;;;;;1.80;1.17;;;;;;;19.71;45.90;97894.81;4943442;28;20236;-92
2023/02/18 10:13:56;;;;;;;1.20;1.10;;;;;;;19.72;45.54;97891.44;4919396;28;20207;-93
2023/02/18 10:16:23;;;;;;;1.53;1.10;;;;;;;17.12;45.67;97451.44;4928900;28;20188;-94
2023/02/18 10:18:55;;;;;;;1.83;1.20;;;;;;;19.22;45.71;97800.88;4933238;28;20188;-92
2023/02/18 10:21:24;;;;;;;0.90;0.90;;;;;;;18.93;45.75;97750.34;4956074;28;20188;-93
2023/02/18 10:23:59;;;;;;;1.70;1.13;;;;;;;18.67;45.57;97705.94;4930546;28;20214;-91
2023/02/18 10:26:26;;;;;;;0.90;0.90;;;;;;;19.09;45.61;97780.75;4931213;28;20188;-93
2023/02/18 10:28:53;;;;;;;1.90;1.10;;;;;;;19.36;45.63;97818.50;4930218;28;20220;-93
2023/02/18 10:31:30;;;;;;;1.77;1.20;;;;;;;19.77;45.17;97879.78;4950255;28;20236;-93
2023/02/18 10:34:04;;;;;;;2.37;1.27;;;;;;;19.12;45.48;97752.88;4946386;28;20254;-93
2023/02/18 10:36:45;;;;;;;1.40;1.30;;;;;;;19.16;45.49;97775.13;4973064;28;20215;-93
2023/02/18 10:39:21;;;;;;;1.30;1.20;;;;;;;20.15;45.70;97942.59;4917700;28;20224;-93
2023/02/18 10:42:11;;;;;;;1.10;1.03;;;;;;;20.15;45.54;97949.38;4955335;28;20188;-93
2023/02/18 10:45:07;;;;;;;2.47;1.30;;;;;;;20.14;45.51;97951.09;4966509;28;20180;-92
2023/02/18 10:47:40;;;;;;;1.33;1.23;;;;;;;18.99;45.70;97761.69;4940747;28;20184;-93
2023/02/18 10:50:22;;;;;;;1.33;1.00;;;;;;;20.14;45.71;97930.66;4928468;28;20252;-94
2023/02/18 10:52:50;;;;;;;1.87;1.37;;;;;;;18.37;45.64;97640.09;4968108;28;20270;-93
2023/02/18 10:55:17;;;;;;;1.27;1.00;;;;;;;18.47;45.61;97660.09;4943217;28;20193;-94
2023/02/18 10:57:49;;;;;;;1.30;1.20;;;;;;;18.36;45.64;97638.38;4935749;28;20252;-93
2023/02/18 11:00:19;;;;;;;1.23;1.13;;;;;;;20.12;45.86;97933.91;4931150;28;20199;-93
2023/02/18 11:02:46;;;;;;;1.20;1.10;;;;;;;20.12;45.64;97951.78;4938797;28;20205;-94
2023/02/18 11:05:23;;;;;;;1.40;1.20;;;;;;;18.61;45.73;97676.81;4938328;28;20216;-93
2023/02/18 11:07:50;;;;;;;1.10;1.10;;;;;;;18.85;45.66;97713.50;4927456;28;20283;-93
2023/02/18 11:10:25;;;;;;;1.20;1.20;;;;;;;19.89;45.81;97887.94;4920946;28;20185;-93
2023/02/18 11:12:57;;;;;;;1.40;1.30;;;;;;;18.46;45.73;97665.97;4943014;28;20215;-92
2023/02/18 11:15:24;;;;;;;1.50;1.13;;;;;;;17.95;45.71;97538.22;4939938;28;20192;-94
2023/02/18 11:17:53;;;;;;;1.10;1.10;;;;;;;19.21;45.71;97756.69;4941618;28;20259;-94
2023/02/18 11:20:30;;;;;;;1.10;1.00;;;;;;;20.11;45.74;97905.00;4943086;28;20201;-93
2023/02/18 11:23:06;;;;;;;1.20;1.10;;;;;;;20.11;45.80;97904.09;4937518;28;20212;-92
2023/02/18 11:25:34;;;;;;;1.10;1.10;;;;;;;18.23;45.60;97599.66;4965999;28;20211;-93
2023/02/18 11:28:02;;;;;;;1.10;1.00;;;;;;;18.81;45.73;97676.00;4932911;28;20189;-92
2023/02/18 11:30:37;;;;;;;1.00;1.00;;;;;;;18.99;45.74;97710.75;4935706;28;20244;-92
2023/02/18 11:33:20;;;;;;;2.07;1.10;;;;;;;20.12;45.70;97900.75;4936418;28;20230;-93
2023/02/18 11:35:51;;;;;;;2.60;1.17;;;;;;;18.80;45.78;97677.66;4942218;28;20199;-93
2023/02/18 11:38:24;;;;;;;1.40;1.30;;;;;;;20.11;45.78;97876.03;4934957;28;20189;-93
2023/02/18 11:41:02;;;;;;;1.20;1.10;;;;;;;18.46;46.04;97612.53;4958218;28;20216;-93
2023/02/18 11:43:29;;;;;;;1.03;1.00;;;;;;;17.89;46.03;97486.28;4925578;28;20212;-94
2023/02/18 11:46:09;;;;;;;0.93;0.93;;;;;;;20.11;45.65;97866.72;4928035;28;20193;-92
2023/02/18 11:48:36;;;;;;;1.30;1.20;;;;;;;18.81;45.71;97679.41;4972820;28;20184;-92
2023/02/18 11:51:03;;;;;;;1.13;1.00;;;;;;;17.83;45.90;97481.78;4922055;28;20251;-93
2023/02/18 11:53:34;;;;;;;0.90;0.90;;;;;;;20.10;45.83;97862.41;4940970;28;20240;-93
2023/02/18 11:56:07;;;;;;;1.13;1.03;;;;;;;18.10;45.82;97512.59;4935030;28;20194;-93
2023/02/18 11:58:42;;;;;;;1.40;1.00;;;;;;;18.57;45.68;97603.69;4929896;28;20197;-93
2023/02/18 12:01:23;;;;;;;1.70;0.90;;;;;;;19.29;45.80;97716.25;4928885;28;20266;-93
2023/02/18 12:04:10;;;;;;;1.00;1.00;;;;;;;19.61;45.70;97761.78;4929972;28;20232;-93
2023/02/18 12:07:08;;;;;;;1.20;1.10;;;;;;;20.11;45.75;97840.31;4949510;28;20189;-92
2023/02/18 12:09:53;;;;;;;1.00;1.00;;;;;;;19.16;45.90;97685.97;4965220;28;20204;-93
2023/02/18 12:12:32;;;;;;;0.90;0.90;;;;;;;18.36;45.72;97544.22;4922915;28;20255;-92
2023/02/18 12:14:58;;;;;;;1.10;1.10;;;;;;;17.91;46.16;97494.81;4941617;28;20185;-92
2023/02/18 12:17:28;;;;;;;1.00;1.00;;;;;;;20.10;45.75;97839.44;4974031;28;20343;-93
2023/02/18 12:20:14;;;;;;;1.30;1.20;;;;;;;18.12;45.89;97522.03;4964646;28;20224;-93
2023/02/18 12:22:45;;;;;;;1.20;1.10;;;;;;;19.16;45.72;97683.44;4949123;28;20216;-92
2023/02/18 12:25:43;;;;;;;1.03;1.03;;;;;;;20.11;45.92;97841.22;4926057;28;20189;-93
2023/02/18 12:28:12;;;;;;;1.03;0.90;;;;;;;20.11;45.68;97827.56;4938962;28;20196;-92
2023/02/18 12:30:54;;;;;;;1.40;1.00;;;;;;;20.11;45.75;97831.00;4960224;28;20315;-92
2023/02/18 12:33:44;;;;;;;1.30;1.20;;;;;;;20.11;45.84;97825.00;4953449;28;20213;-93
2023/02/18 12:36:33;;;;;;;1.10;1.00;;;;;;;20.10;45.90;97811.38;4947749;28;20260;-94
2023/02/18 12:39:23;;;;;;;1.00;1.00;;;;;;;18.48;45.83;97557.50;4980266;28;20215;-92
2023/02/18 12:42:11;;;;;;;1.20;1.10;;;;;;;20.11;45.76;97796.94;4937056;28;20192;-93
2023/02/18 12:44:43;;;;;;;1.10;1.10;;;;;;;20.10;45.92;97801.16;4969683;28;20219;-91
2023/02/18 12:47:24;;;;;;;1.10;1.10;;;;;;;18.66;45.92;97579.50;4947564;28;20217;-94
2023/02/18 12:50:13;;;;;;;1.07;1.00;;;;;;;19.07;45.75;97640.59;4938916;28;20188;-94
2023/02/18 12:53:15;;;;;;;1.23;1.10;;;;;;;20.11;45.84;97808.03;4960867;28;20243;-93
2023/02/18 12:55:51;;;;;;;1.20;1.03;;;;;;;18.43;45.58;97520.81;4948419;28;20207;-93
2023/02/18 12:58:21;;;;;;;1.40;1.00;;;;;;;20.12;46.04;97798.69;4947602;28;20218;-93